Time;durP1;ratioP1;P1;durP2;ratioP2;P2;SDS_P1;SDS_P2;PMS_P1;PMS_P2;Temp;Humidity;BMP_temperature;BMP_pressure;BME280_temperature;BME280_humidity;BME280_pressure;Samples;Min_cycle;Max_cycle;Signal;HPM_P1;HPM_P2
2022/02/04 00:02:04;;;;;;;10.75;6.63;;;;;;;;;;4921736;29;20082;-86
2022/02/04 00:24:05;;;;;;;19.15;9.75;;;;;;;;;;4921602;29;20024;-88
2022/02/04 00:26:35;;;;;;;15.07;8.75;;;;;;;;;;4920413;29;20024;-89
2022/02/04 00:29:17;;;;;;;18.25;10.20;;;;;;;;;;4903050;29;20024;-85
2022/02/04 00:31:48;;;;;;;17.48;9.50;;;;;;;;;;4919028;29;20028;-86
2022/02/04 00:34:18;;;;;;;16.73;8.55;;;;;;;;;;4919070;29;20028;-87
2022/02/04 00:39:17;;;;;;;14.98;8.57;;;;;;;;;;4920161;29;20032;-87
2022/02/04 00:41:43;;;;;;;14.65;8.68;;;;;;;;;;4923451;29;20050;-86
2022/02/04 00:44:18;;;;;;;14.48;8.25;;;;;;;;;;4925250;29;20031;-84
2022/02/04 00:47:00;;;;;;;14.77;8.10;;;;;;;;;;4927667;29;20095;-88
2022/02/04 00:49:45;;;;;;;16.33;8.77;;;;;;;;;;4908910;29;20103;-83
2022/02/04 00:57:07;;;;;;;12.07;6.93;;;;;;;;;;4920110;29;20031;-87
2022/02/04 01:26:33;;;;;;;10.45;5.88;;;;;;;;;;4933841;29;20128;-88
2022/02/04 01:28:59;;;;;;;10.07;6.05;;;;;;;;;;4908508;29;20032;-83
2022/02/04 01:31:25;;;;;;;12.30;6.55;;;;;;;;;;4920592;29;20024;-81
2022/02/04 01:33:52;;;;;;;14.77;5.93;;;;;;;;;;4901529;29;20063;-79
2022/02/04 01:36:17;;;;;;;11.93;5.80;;;;;;;;;;4901514;29;20080;-85
2022/02/04 01:38:43;;;;;;;12.63;6.30;;;;;;;;;;4901510;29;20020;-83
2022/02/04 01:41:09;;;;;;;14.32;6.32;;;;;;;;;;4905643;29;20028;-80
2022/02/04 01:43:35;;;;;;;12.20;5.50;;;;;;;;;;4906326;29;20299;-86
2022/02/04 01:46:03;;;;;;;9.77;5.72;;;;;;;;;;4901782;29;20016;-90
2022/02/04 01:48:28;;;;;;;10.53;5.67;;;;;;;;;;4918899;29;20100;-87
2022/02/04 01:50:53;;;;;;;10.32;5.82;;;;;;;;;;4902049;29;20056;-87
2022/02/04 01:53:20;;;;;;;12.23;5.95;;;;;;;;;;4918908;29;20457;-88
2022/02/04 01:55:46;;;;;;;11.88;5.60;;;;;;;;;;4917699;29;20016;-88
2022/02/04 01:58:12;;;;;;;9.13;5.38;;;;;;;;;;4917840;29;20370;-89
2022/02/04 02:00:38;;;;;;;11.23;5.45;;;;;;;;;;4918029;29;20291;-85
2022/02/04 02:03:04;;;;;;;9.25;5.03;;;;;;;;;;4918204;29;20039;-84
2022/02/04 02:05:29;;;;;;;10.32;4.75;;;;;;;;;;4903729;29;20023;-85
2022/02/04 02:08:06;;;;;;;8.45;5.05;;;;;;;;;;4919921;29;20016;-88
2022/02/04 02:10:31;;;;;;;8.05;4.88;;;;;;;;;;4918833;29;20024;-85
2022/02/04 02:13:47;;;;;;;8.43;4.85;;;;;;;;;;4901095;29;20100;-87
2022/02/04 02:35:20;;;;;;;6.38;3.28;;;;;;;;;;4931913;29;20039;-82
2022/02/04 02:43:53;;;;;;;5.60;3.53;;;;;;;;;;4923535;29;20031;-82
2022/02/04 02:59:07;;;;;;;6.20;3.83;;;;;;;;;;4934437;29;20036;-82
2022/02/04 03:01:33;;;;;;;6.95;3.88;;;;;;;;;;4934986;29;20020;-83
2022/02/04 03:04:04;;;;;;;6.68;3.88;;;;;;;;;;4922142;29;20060;-83
2022/02/04 03:06:29;;;;;;;7.90;3.75;;;;;;;;;;4919140;29;20127;-83
2022/02/04 03:08:54;;;;;;;6.30;3.05;;;;;;;;;;4917884;29;20434;-82
2022/02/04 03:11:20;;;;;;;6.25;3.67;;;;;;;;;;4938985;29;20024;-81
2022/02/04 03:13:45;;;;;;;8.05;4.13;;;;;;;;;;4937939;29;20019;-82
2022/02/04 03:16:15;;;;;;;9.55;4.35;;;;;;;;;;4940818;29;20079;-82
2022/02/04 03:18:45;;;;;;;6.57;3.72;;;;;;;;;;4940804;29;20056;-81
2022/02/04 03:21:15;;;;;;;7.45;3.80;;;;;;;;;;4938956;29;20048;-87
2022/02/04 03:23:43;;;;;;;7.43;4.18;;;;;;;;;;4940501;29;20035;-85
2022/02/04 03:26:15;;;;;;;8.00;3.40;;;;;;;;;;4923835;29;20016;-84
2022/02/04 03:28:41;;;;;;;6.80;4.10;;;;;;;;;;4923808;29;20019;-82
2022/02/04 03:31:07;;;;;;;7.88;4.32;;;;;;;;;;4927695;29;20017;-85
2022/02/04 03:33:34;;;;;;;9.07;4.00;;;;;;;;;;4928799;29;20024;-85
2022/02/04 03:35:59;;;;;;;7.43;3.90;;;;;;;;;;4909601;29;20088;-81
2022/02/04 03:38:25;;;;;;;10.48;4.00;;;;;;;;;;4906809;29;20473;-83
2022/02/04 03:40:50;;;;;;;7.93;4.13;;;;;;;;;;4906555;29;20024;-86
2022/02/04 03:43:15;;;;;;;8.05;3.75;;;;;;;;;;4926833;29;20028;-82
2022/02/04 03:45:41;;;;;;;6.13;3.72;;;;;;;;;;4923759;29;20417;-85
2022/02/04 03:48:07;;;;;;;9.63;3.53;;;;;;;;;;4932119;29;20040;-84
2022/02/04 03:50:35;;;;;;;9.30;4.03;;;;;;;;;;4941552;29;20005;-85
2022/02/04 03:53:00;;;;;;;6.40;3.63;;;;;;;;;;4943232;29;20028;-83
2022/02/04 03:55:26;;;;;;;6.78;3.63;;;;;;;;;;4937525;29;20035;-84
2022/02/04 03:57:51;;;;;;;7.53;4.32;;;;;;;;;;4914087;29;20048;-87
2022/02/04 04:00:17;;;;;;;9.32;4.50;;;;;;;;;;4906082;29;20067;-86
2022/02/04 04:02:43;;;;;;;8.98;4.60;;;;;;;;;;4905921;29;20016;-85
2022/02/04 04:05:09;;;;;;;9.60;4.65;;;;;;;;;;4902992;29;20030;-84
2022/02/04 04:07:40;;;;;;;7.45;4.15;;;;;;;;;;4902813;29;20028;-87
2022/02/04 04:10:10;;;;;;;8.65;4.53;;;;;;;;;;4915186;29;20072;-85
2022/02/04 04:12:35;;;;;;;9.30;4.57;;;;;;;;;;4921682;29;20367;-85
2022/02/04 04:15:06;;;;;;;9.05;4.57;;;;;;;;;;4914269;29;20063;-82
2022/02/04 04:20:17;;;;;;;9.50;4.53;;;;;;;;;;4921592;29;20032;-83
2022/02/04 04:22:42;;;;;;;8.93;3.97;;;;;;;;;;4910225;29;20039;-84
2022/02/04 04:25:11;;;;;;;8.20;4.22;;;;;;;;;;4906842;29;20052;-88
2022/02/04 04:27:41;;;;;;;10.52;4.95;;;;;;;;;;4924748;29;20033;-85
2022/02/04 04:30:07;;;;;;;9.10;5.03;;;;;;;;;;4916624;29;20017;-87
2022/02/04 04:32:37;;;;;;;8.30;4.53;;;;;;;;;;4912712;29;20020;-89
2022/02/04 04:35:03;;;;;;;6.90;4.22;;;;;;;;;;4902699;29;20215;-87
2022/02/04 04:37:34;;;;;;;8.57;4.40;;;;;;;;;;4916251;29;20028;-85
2022/02/04 04:42:47;;;;;;;9.32;4.78;;;;;;;;;;4920212;29;20029;-85
2022/02/04 05:29:14;;;;;;;10.45;5.30;;;;;;;;;;4923180;29;20047;-82
2022/02/04 05:31:40;;;;;;;8.45;4.82;;;;;;;;;;4904174;29;20032;-83
2022/02/04 05:34:06;;;;;;;13.30;5.85;;;;;;;;;;4905026;29;20016;-83
2022/02/04 05:36:38;;;;;;;8.90;5.22;;;;;;;;;;4905966;29;20009;-82
2022/02/04 05:39:06;;;;;;;8.27;4.90;;;;;;;;;;4921000;29;20005;-85
2022/02/04 05:41:35;;;;;;;11.68;4.88;;;;;;;;;;4919855;29;20020;-84
2022/02/04 05:44:06;;;;;;;9.30;5.00;;;;;;;;;;4919852;29;20032;-81
2022/02/04 05:46:51;;;;;;;10.15;5.18;;;;;;;;;;4904412;29;20034;-82
2022/02/04 05:49:20;;;;;;;9.35;5.18;;;;;;;;;;4906173;29;20019;-83
2022/02/04 05:51:56;;;;;;;11.75;5.55;;;;;;;;;;4905769;29;20024;-84
2022/02/04 05:57:14;;;;;;;10.25;5.50;;;;;;;;;;4921341;29;20008;-81
2022/02/04 06:02:33;;;;;;;11.15;5.13;;;;;;;;;;4917383;29;20029;-87
2022/02/04 06:05:09;;;;;;;12.18;5.22;;;;;;;;;;4906041;29;20024;-85
2022/02/04 06:08:11;;;;;;;8.82;5.28;;;;;;;;;;4920031;29;20081;-82
2022/02/04 06:11:19;;;;;;;10.23;5.20;;;;;;;;;;4921426;29;20028;-86
2022/02/04 06:24:06;;;;;;;10.40;5.03;;;;;;;;;;4906253;29;20043;-82
2022/02/04 06:26:35;;;;;;;12.57;5.43;;;;;;;;;;4894204;29;20463;-88
2022/02/04 06:29:07;;;;;;;;;;;;;;;;;;4921055;29;20056;-83
2022/02/04 06:31:33;;;;;;;9.55;4.75;;;;;;;;;;4905246;29;19914;-83
2022/02/04 06:33:59;;;;;;;10.88;5.50;;;;;;;;;;4921813;29;20032;-84
2022/02/04 06:36:24;;;;;;;11.55;5.82;;;;;;;;;;4899922;29;20021;-84
2022/02/04 06:38:50;;;;;;;11.20;5.40;;;;;;;;;;4920138;29;20024;-84
2022/02/04 06:41:22;;;;;;;9.77;5.28;;;;;;;;;;4904418;29;20080;-82
2022/02/04 06:43:47;;;;;;;11.52;5.93;;;;;;;;;;4919254;29;20025;-83
2022/02/04 06:46:13;;;;;;;11.52;5.70;;;;;;;;;;4904491;29;20004;-85
2022/02/04 06:48:39;;;;;;;11.80;5.57;;;;;;;;;;4897608;29;20017;-81
2022/02/04 06:51:05;;;;;;;11.32;5.93;;;;;;;;;;4897179;29;20016;-81
2022/02/04 06:53:33;;;;;;;10.48;5.93;;;;;;;;;;4895950;29;20017;-84
2022/02/04 06:55:59;;;;;;;10.40;5.65;;;;;;;;;;4913292;29;20016;-80
2022/02/04 06:58:27;;;;;;;12.13;5.40;;;;;;;;;;4912333;29;20017;-82
2022/02/04 07:00:52;;;;;;;10.98;5.63;;;;;;;;;;4913708;29;20017;-81
2022/02/04 07:03:18;;;;;;;9.98;4.93;;;;;;;;;;4894628;29;20577;-81
2022/02/04 07:05:54;;;;;;;10.15;5.10;;;;;;;;;;4894197;29;20028;-81
2022/02/04 07:08:26;;;;;;;6.90;4.35;;;;;;;;;;4893317;29;20069;-83
2022/02/04 07:14:07;;;;;;;8.95;4.78;;;;;;;;;;4912302;29;20027;-80
2022/02/04 07:16:55;;;;;;;9.07;4.30;;;;;;;;;;4910499;29;20088;-82
2022/02/04 07:22:04;;;;;;;9.43;4.97;;;;;;;;;;4911046;29;20055;-80
2022/02/04 07:24:30;;;;;;;8.60;5.15;;;;;;;;;;4894324;29;20028;-81
2022/02/04 07:26:55;;;;;;;8.07;4.47;;;;;;;;;;4912932;29;20482;-87
2022/02/04 07:29:21;;;;;;;10.32;4.50;;;;;;;;;;4914570;29;20025;-86
2022/02/04 07:31:48;;;;;;;10.25;4.65;;;;;;;;;;4909921;29;20476;-79
2022/02/04 07:34:36;;;;;;;12.18;5.20;;;;;;;;;;4885835;29;20032;-83
2022/02/04 07:42:29;;;;;;;11.60;4.72;;;;;;;;;;4900389;29;20036;-80
2022/02/04 07:44:54;;;;;;;8.77;4.13;;;;;;;;;;4904044;29;20017;-82
2022/02/04 07:47:19;;;;;;;8.70;4.22;;;;;;;;;;4909286;29;20123;-81
2022/02/04 07:49:44;;;;;;;8.20;3.97;;;;;;;;;;4910615;29;20020;-82
2022/02/04 07:52:10;;;;;;;8.02;3.45;;;;;;;;;;4919881;29;20011;-83
2022/02/04 07:54:35;;;;;;;8.20;4.20;;;;;;;;;;4917729;29;20047;-85
2022/02/04 07:57:01;;;;;;;7.78;4.10;;;;;;;;;;4918995;29;20029;-86
2022/02/04 07:59:26;;;;;;;7.60;4.25;;;;;;;;;;4902856;29;20033;-84
2022/02/04 08:01:52;;;;;;;10.27;4.07;;;;;;;;;;4915826;29;20040;-86
2022/02/04 08:04:23;;;;;;;6.15;3.22;;;;;;;;;;4932098;29;20032;-81
2022/02/04 08:06:56;;;;;;;10.20;4.30;;;;;;;;;;4912700;29;20030;-82
2022/02/04 08:18:05;;;;;;;8.48;3.25;;;;;;;;;;4920921;29;20039;-82
2022/02/04 08:22:54;;;;;;;7.80;4.07;;;;;;;;;;4920207;29;20044;-83
2022/02/04 08:25:40;;;;;;;5.97;3.20;;;;;;;;;;4896347;29;20044;-80
2022/02/04 08:31:01;;;;;;;6.90;3.30;;;;;;;;;;4911482;29;20024;-78
2022/02/04 08:57:41;;;;;;;4.55;2.28;;;;;;;;;;5373965;23;20042;-85
2022/02/04 09:08:24;;;;;;;5.32;2.40;;;;;;;;;;5030651;23;20113;-89
2022/02/04 09:31:30;;;;;;;4.10;2.08;;;;;;;;;;5581476;23;20409;-83
2022/02/04 09:34:02;;;;;;;3.65;1.88;;;;;;;;;;4959377;29;20462;-81
2022/02/04 09:36:45;;;;;;;5.55;2.00;;;;;;;;;;4960634;29;20007;-83
2022/02/04 09:39:14;;;;;;;6.75;1.90;;;;;;;;;;4929446;29;20083;-81
2022/02/04 09:41:41;;;;;;;4.75;2.10;;;;;;;;;;4939985;29;20028;-81
2022/02/04 09:44:10;;;;;;;3.67;1.85;;;;;;;;;;4939445;29;20024;-80
2022/02/04 09:46:36;;;;;;;4.90;2.28;;;;;;;;;;4925189;29;20032;-82
2022/02/04 09:49:08;;;;;;;6.15;2.00;;;;;;;;;;4943557;29;20032;-81
2022/02/04 10:04:31;;;;;;;6.20;2.28;;;;;;;;;;4902659;29;20119;-83
2022/02/04 10:08:32;;;;;;;3.63;1.77;;;;;;;;;;4924722;29;20032;-80
2022/02/04 10:14:20;;;;;;;5.55;2.20;;;;;;;;;;4935805;29;20036;-83
2022/02/04 10:17:25;;;;;;;3.60;1.70;;;;;;;;;;4924122;29;20061;-85
2022/02/04 10:19:57;;;;;;;3.88;2.00;;;;;;;;;;5304434;23;20080;-84
2022/02/04 10:22:26;;;;;;;4.13;2.30;;;;;;;;;;4936476;29;20028;-82
2022/02/04 10:25:03;;;;;;;4.80;1.95;;;;;;;;;;4936362;29;20008;-84
2022/02/04 10:27:33;;;;;;;3.78;2.08;;;;;;;;;;4940093;29;20027;-83
2022/02/04 10:30:06;;;;;;;4.75;2.40;;;;;;;;;;4923084;29;20056;-83
2022/02/04 10:32:46;;;;;;;3.92;2.05;;;;;;;;;;4923339;29;20031;-83
2022/02/04 10:35:20;;;;;;;4.78;2.03;;;;;;;;;;5030682;23;20048;-85
2022/02/04 10:37:57;;;;;;;3.40;1.80;;;;;;;;;;4959746;29;20060;-84
2022/02/04 10:43:36;;;;;;;5.20;2.00;;;;;;;;;;5071215;23;20063;-85
2022/02/04 10:48:34;;;;;;;3.35;1.75;;;;;;;;;;4957072;29;20039;-83
2022/02/04 11:02:02;;;;;;;4.50;1.98;;;;;;;;;;5418623;23;20033;-81
2022/02/04 11:04:46;;;;;;;3.45;1.98;;;;;;;;;;5053973;23;20047;-86
2022/02/04 11:47:55;;;;;;;2.22;1.20;;;;;;;;;;4921204;29;20047;-84
2022/02/04 11:53:25;;;;;;;4.18;1.00;;;;;;;;;;4903682;29;20021;-83
2022/02/04 11:56:01;;;;;;;2.92;1.20;;;;;;;;;;4906471;29;20025;-83
2022/02/04 11:58:29;;;;;;;6.13;1.35;;;;;;;;;;4905714;29;20021;-83
2022/02/04 12:01:05;;;;;;;4.07;1.50;;;;;;;;;;4889103;29;20080;-83
2022/02/04 12:03:53;;;;;;;4.50;1.40;;;;;;;;;;5008755;23;20062;-84
2022/02/04 12:06:31;;;;;;;3.65;1.13;;;;;;;;;;4962389;29;20020;-83
2022/02/04 12:09:15;;;;;;;2.28;1.05;;;;;;;;;;4956929;29;20047;-81
2022/02/04 12:11:41;;;;;;;2.47;1.17;;;;;;;;;;4919718;29;20073;-83
2022/02/04 12:14:11;;;;;;;1.67;0.80;;;;;;;;;;5017856;23;20044;-83
2022/02/04 12:16:56;;;;;;;1.45;0.63;;;;;;;;;;4960011;29;20038;-82
2022/02/04 12:19:38;;;;;;;1.70;0.70;;;;;;;;;;4950871;29;20031;-83
2022/02/04 12:22:07;;;;;;;2.92;1.00;;;;;;;;;;4937032;29;20039;-82
2022/02/04 12:24:32;;;;;;;;;;;;;;;;;;4984444;23;20054;-83
2022/02/04 12:27:16;;;;;;;1.30;0.70;;;;;;;;;;4959878;29;19894;-82
2022/02/04 12:29:42;;;;;;;3.47;0.93;;;;;;;;;;4934556;29;20016;-85
2022/02/04 12:32:14;;;;;;;1.10;0.60;;;;;;;;;;4927226;29;20079;-84
2022/02/04 12:34:45;;;;;;;1.33;0.65;;;;;;;;;;4943826;29;20040;-84
2022/02/04 12:37:11;;;;;;;1.08;0.57;;;;;;;;;;4950156;29;20042;-82
2022/02/04 12:39:36;;;;;;;2.40;0.88;;;;;;;;;;4948711;29;20017;-81
2022/02/04 12:42:03;;;;;;;1.40;0.63;;;;;;;;;;4945460;29;20016;-83
2022/02/04 12:44:36;;;;;;;1.73;0.90;;;;;;;;;;4940852;29;20032;-83
2022/02/04 12:47:05;;;;;;;1.10;0.55;;;;;;;;;;4966996;23;20103;-84
2022/02/04 12:49:54;;;;;;;1.67;0.50;;;;;;;;;;5485730;23;20997;-83
2022/02/04 12:52:41;;;;;;;1.35;0.70;;;;;;;;;;4951080;29;20088;-83
2022/02/04 12:55:20;;;;;;;1.67;0.68;;;;;;;;;;4945085;29;20032;-83
2022/02/04 13:03:28;;;;;;;1.83;0.90;;;;;;;;;;4774418;23;20047;-82
2022/02/04 13:09:22;;;;;;;1.65;0.80;;;;;;;;;;4954640;29;21464;-84
2022/02/04 13:11:35;;;;;;;0.85;0.50;;;;;;;;;;4937659;29;20024;-82
2022/02/04 13:14:00;;;;;;;0.77;0.50;;;;;;;;;;4935064;29;20181;-82
2022/02/04 13:16:27;;;;;;;2.92;0.68;;;;;;;;;;4912052;29;20027;-81
2022/02/04 13:18:53;;;;;;;3.70;0.55;;;;;;;;;;4940379;29;20044;-83
2022/02/04 13:21:20;;;;;;;1.35;0.60;;;;;;;;;;4923732;29;20020;-84
2022/02/04 13:23:51;;;;;;;0.60;0.50;;;;;;;;;;4940726;29;20032;-83
2022/02/04 13:26:20;;;;;;;5.60;0.73;;;;;;;;;;4937832;29;20020;-86
2022/02/04 13:28:46;;;;;;;3.25;0.60;;;;;;;;;;4934263;29;20104;-84
2022/02/04 13:31:13;;;;;;;0.82;0.50;;;;;;;;;;4921366;29;20024;-82
2022/02/04 13:33:38;;;;;;;1.25;0.52;;;;;;;;;;4937839;29;20012;-83
2022/02/04 13:39:19;;;;;;;1.17;0.50;;;;;;;;;;4936743;29;20046;-83
2022/02/04 13:46:50;;;;;;;2.07;0.83;;;;;;;;;;4935200;29;20039;-80
2022/02/04 13:49:36;;;;;;;3.88;1.80;;;;;;;;;;4935398;29;20024;-81
2022/02/04 13:52:15;;;;;;;1.15;0.50;;;;;;;;;;4935094;29;20079;-82
2022/02/04 13:55:03;;;;;;;2.75;1.10;;;;;;;;;;4936973;29;20008;-83
2022/02/04 13:57:38;;;;;;;4.63;1.05;;;;;;;;;;4924828;29;20008;-82
2022/02/04 14:03:08;;;;;;;0.38;0.35;;;;;;;;;;4942178;29;20039;-82
2022/02/04 14:05:41;;;;;;;5.22;1.35;;;;;;;;;;4925364;29;20030;-82
2022/02/04 14:08:11;;;;;;;2.38;0.80;;;;;;;;;;4935141;29;20055;-81
2022/02/04 14:10:47;;;;;;;2.28;0.90;;;;;;;;;;4934987;29;20079;-82
2022/02/04 14:13:13;;;;;;;0.93;0.55;;;;;;;;;;4914960;29;20024;-82
2022/02/04 14:15:40;;;;;;;2.25;0.90;;;;;;;;;;4915595;29;20028;-83
2022/02/04 14:18:10;;;;;;;5.40;0.88;;;;;;;;;;4932489;29;20020;-82
2022/02/04 14:20:38;;;;;;;1.08;0.50;;;;;;;;;;4931845;29;20016;-82
2022/02/04 14:23:07;;;;;;;2.10;0.80;;;;;;;;;;4914268;29;20017;-82
2022/02/04 14:25:42;;;;;;;1.80;0.55;;;;;;;;;;4931059;29;20020;-81
2022/02/04 14:28:10;;;;;;;1.63;0.57;;;;;;;;;;4913224;29;20047;-82
2022/02/04 14:30:37;;;;;;;0.75;0.50;;;;;;;;;;4914309;29;20040;-81
2022/02/04 14:33:11;;;;;;;4.90;2.33;;;;;;;;;;4931104;29;20024;-82
2022/02/04 15:02:27;;;;;;;1.20;0.60;;;;;;;;;;4925521;29;20124;-82
2022/02/04 15:04:54;;;;;;;1.77;0.43;;;;;;;;;;4908690;29;20059;-83
2022/02/04 15:07:20;;;;;;;0.93;0.50;;;;;;;;;;4907450;29;20036;-81
2022/02/04 15:09:54;;;;;;;2.40;0.88;;;;;;;;;;4923849;29;20030;-82
2022/02/04 15:12:19;;;;;;;2.38;0.98;;;;;;;;;;4923859;29;20028;-82
2022/02/04 15:14:45;;;;;;;1.38;0.70;;;;;;;;;;4922610;29;20472;-81
2022/02/04 15:17:10;;;;;;;0.80;0.50;;;;;;;;;;4922914;29;20537;-80
2022/02/04 15:19:41;;;;;;;2.13;0.60;;;;;;;;;;4921918;29;20483;-80
2022/02/04 15:22:08;;;;;;;2.13;0.90;;;;;;;;;;4922269;29;20059;-81
2022/02/04 15:24:33;;;;;;;3.65;1.25;;;;;;;;;;4922737;29;20024;-81
2022/02/04 15:26:59;;;;;;;2.03;0.63;;;;;;;;;;4921407;29;20061;-81
2022/02/04 15:29:25;;;;;;;1.65;1.02;;;;;;;;;;4922123;29;20071;-80
2022/02/04 15:31:54;;;;;;;4.18;0.70;;;;;;;;;;4904264;29;20028;-80
2022/02/04 15:34:20;;;;;;;2.25;1.00;;;;;;;;;;4919835;29;20020;-81
2022/02/04 15:36:48;;;;;;;1.48;0.80;;;;;;;;;;4920514;29;20039;-81
2022/02/04 15:39:19;;;;;;;5.55;0.80;;;;;;;;;;4905654;29;20028;-80
2022/02/04 15:41:53;;;;;;;1.63;0.82;;;;;;;;;;4922674;29;20024;-81
2022/02/04 15:51:46;;;;;;;3.20;0.90;;;;;;;;;;4923331;29;20020;-81
2022/02/04 15:56:47;;;;;;;2.83;0.90;;;;;;;;;;4920818;29;20024;-79
2022/02/04 16:04:27;;;;;;;1.48;0.65;;;;;;;;;;4921071;29;20024;-82
2022/02/04 16:06:52;;;;;;;1.10;0.70;;;;;;;;;;4919331;29;20027;-80
2022/02/04 16:09:20;;;;;;;1.02;0.52;;;;;;;;;;4902094;29;20020;-80
2022/02/04 16:11:52;;;;;;;3.88;0.90;;;;;;;;;;4919726;29;20024;-80
2022/02/04 16:16:49;;;;;;;2.05;0.60;;;;;;;;;;4919858;29;20489;-81
2022/02/04 16:19:27;;;;;;;2.38;1.00;;;;;;;;;;4919771;29;20028;-80
2022/02/04 16:29:39;;;;;;;1.60;0.90;;;;;;;;;;4919653;29;20039;-81
2022/02/04 16:32:05;;;;;;;3.15;1.00;;;;;;;;;;4902230;29;20062;-81
2022/02/04 16:34:30;;;;;;;1.45;0.70;;;;;;;;;;4919424;29;20024;-81
2022/02/04 16:37:01;;;;;;;1.77;0.95;;;;;;;;;;4903591;29;20032;-81
2022/02/04 16:39:27;;;;;;;1.23;0.70;;;;;;;;;;4923773;29;20024;-81
2022/02/04 16:42:02;;;;;;;2.30;1.10;;;;;;;;;;4923212;29;20068;-81
2022/02/04 16:44:30;;;;;;;3.35;1.35;;;;;;;;;;4922525;29;20097;-80
2022/02/04 16:46:56;;;;;;;3.38;1.77;;;;;;;;;;4924104;29;20031;-81
2022/02/04 16:49:21;;;;;;;4.15;1.80;;;;;;;;;;4920937;29;20028;-81
2022/02/04 16:51:49;;;;;;;3.22;1.70;;;;;;;;;;4924058;29;20079;-81
2022/02/04 16:54:16;;;;;;;2.55;1.10;;;;;;;;;;4921833;29;20029;-81
2022/02/04 16:56:41;;;;;;;4.47;2.05;;;;;;;;;;4922328;29;20035;-81
2022/02/04 16:59:06;;;;;;;4.68;1.75;;;;;;;;;;4905386;29;20024;-80
2022/02/04 17:01:32;;;;;;;4.45;2.13;;;;;;;;;;4923168;29;20556;-81
2022/02/04 17:03:58;;;;;;;3.28;1.48;;;;;;;;;;4925504;29;20021;-81
2022/02/04 17:06:26;;;;;;;4.07;1.90;;;;;;;;;;4940699;29;20064;-81
2022/02/04 17:08:58;;;;;;;4.07;1.85;;;;;;;;;;4925196;29;20025;-80
2022/02/04 17:11:26;;;;;;;3.45;1.83;;;;;;;;;;4925889;29;20020;-82
2022/02/04 17:13:52;;;;;;;5.28;2.10;;;;;;;;;;4943147;29;20085;-81
2022/02/04 17:22:20;;;;;;;3.00;1.55;;;;;;;;;;5019294;23;20058;-82
2022/02/04 17:24:49;;;;;;;3.10;1.50;;;;;;;;;;4927780;29;20099;-82
2022/02/04 17:27:20;;;;;;;2.53;1.13;;;;;;;;;;4925677;29;20020;-80
2022/02/04 17:29:45;;;;;;;1.90;1.00;;;;;;;;;;4930604;29;20020;-81
2022/02/04 17:32:10;;;;;;;3.42;1.23;;;;;;;;;;4906516;29;20024;-81
2022/02/04 17:34:39;;;;;;;2.13;0.70;;;;;;;;;;4926331;29;20023;-80
2022/02/04 17:37:10;;;;;;;2.22;1.02;;;;;;;;;;4935091;29;20267;-81
2022/02/04 17:39:45;;;;;;;2.90;1.10;;;;;;;;;;4925055;29;20059;-81
2022/02/04 17:42:10;;;;;;;2.42;1.20;;;;;;;;;;4907304;29;20536;-81
2022/02/04 17:44:36;;;;;;;1.85;1.02;;;;;;;;;;4923400;29;20020;-81
2022/02/04 17:47:01;;;;;;;3.97;1.20;;;;;;;;;;4907173;29;20092;-80
2022/02/04 17:52:01;;;;;;;2.72;1.30;;;;;;;;;;4926417;29;20561;-82
2022/02/04 17:54:37;;;;;;;3.85;1.40;;;;;;;;;;4925222;29;20028;-81
2022/02/04 17:57:16;;;;;;;4.00;1.67;;;;;;;;;;4931479;29;20020;-82
2022/02/04 18:03:02;;;;;;;3.83;1.98;;;;;;;;;;4935546;29;20028;-82
2022/02/04 18:07:29;;;;;;;2.03;1.13;;;;;;;;;;4935666;29;20052;-82
2022/02/04 18:09:54;;;;;;;2.70;1.20;;;;;;;;;;4935909;29;20020;-83
2022/02/04 18:12:23;;;;;;;5.43;1.10;;;;;;;;;;4935835;29;20020;-81
2022/02/04 18:14:49;;;;;;;2.97;0.85;;;;;;;;;;4933995;29;20020;-82
2022/02/04 18:17:14;;;;;;;2.10;0.93;;;;;;;;;;4934672;29;20035;-83
2022/02/04 18:19:41;;;;;;;1.98;0.68;;;;;;;;;;4935504;29;20111;-82
2022/02/04 18:22:06;;;;;;;1.33;0.70;;;;;;;;;;4936355;29;20536;-83
2022/02/04 18:24:31;;;;;;;1.00;0.43;;;;;;;;;;4937505;29;20039;-84
2022/02/04 18:26:57;;;;;;;1.05;0.50;;;;;;;;;;4921913;29;20466;-81
2022/02/04 18:29:22;;;;;;;1.13;0.40;;;;;;;;;;4920565;29;20012;-83
2022/02/04 18:31:48;;;;;;;1.95;0.73;;;;;;;;;;4921890;29;20028;-80
2022/02/04 18:34:14;;;;;;;1.05;0.47;;;;;;;;;;4937573;29;20024;-82
2022/02/04 18:36:40;;;;;;;2.95;0.52;;;;;;;;;;4938190;29;20055;-83
2022/02/04 18:44:31;;;;;;;1.95;1.02;;;;;;;;;;4938656;29;20047;-81
2022/02/04 18:47:01;;;;;;;1.33;0.65;;;;;;;;;;4922218;29;20055;-78
2022/02/04 18:49:37;;;;;;;2.25;0.63;;;;;;;;;;4938309;29;20091;-83
2022/02/04 18:54:43;;;;;;;1.38;0.57;;;;;;;;;;4941062;29;20009;-83
2022/02/04 18:57:21;;;;;;;0.52;0.47;;;;;;;;;;4941575;29;20072;-85
2022/02/04 19:02:25;;;;;;;1.30;0.68;;;;;;;;;;4960953;29;20027;-84
2022/02/04 19:10:18;;;;;;;1.27;0.68;;;;;;;;;;5087854;23;20047;-84
2022/02/04 19:12:55;;;;;;;2.67;1.20;;;;;;;;;;4924821;29;20015;-84
2022/02/04 19:18:04;;;;;;;1.08;0.63;;;;;;;;;;5038102;23;20048;-84
2022/02/04 19:20:59;;;;;;;1.17;0.50;;;;;;;;;;4988018;23;20104;-85
2022/02/04 19:23:27;;;;;;;1.98;0.47;;;;;;;;;;5156358;23;20063;-83
2022/02/04 19:25:59;;;;;;;0.80;0.40;;;;;;;;;;4943498;29;20026;-85
2022/02/04 19:28:33;;;;;;;1.13;0.60;;;;;;;;;;4942484;29;20015;-83
2022/02/04 19:31:01;;;;;;;0.95;0.60;;;;;;;;;;5025289;23;20084;-84
2022/02/04 19:33:27;;;;;;;2.38;0.73;;;;;;;;;;4940933;29;20076;-84
2022/02/04 19:35:58;;;;;;;1.20;0.60;;;;;;;;;;4940905;29;20008;-84
2022/02/04 19:38:27;;;;;;;2.85;0.60;;;;;;;;;;4940104;29;20008;-83
2022/02/04 19:43:23;;;;;;;1.17;0.60;;;;;;;;;;4957443;29;20091;-84
2022/02/04 19:45:54;;;;;;;1.67;0.52;;;;;;;;;;5111953;23;20107;-85
2022/02/04 19:48:32;;;;;;;3.97;0.65;;;;;;;;;;4959802;29;20004;-83
2022/02/04 20:13:47;;;;;;;0.75;0.40;;;;;;;;;;4942752;29;20063;-84
2022/02/04 20:24:46;;;;;;;1.65;0.60;;;;;;;;;;4942632;29;20084;-84
2022/02/04 20:26:42;;;;;;;1.95;0.80;;;;;;;;;;4988434;23;20068;-83
2022/02/04 20:29:07;;;;;;;1.42;0.63;;;;;;;;;;4940569;29;20096;-83
2022/02/04 20:31:36;;;;;;;1.15;0.70;;;;;;;;;;4927096;29;20107;-84
2022/02/04 20:34:08;;;;;;;0.47;0.32;;;;;;;;;;4926941;29;20032;-83
2022/02/04 20:36:36;;;;;;;2.03;0.70;;;;;;;;;;4925421;29;20051;-84
2022/02/04 20:39:06;;;;;;;1.58;0.70;;;;;;;;;;4926537;29;20056;-82
2022/02/04 20:41:39;;;;;;;1.25;0.68;;;;;;;;;;4926418;29;20040;-82
2022/02/04 20:44:14;;;;;;;2.85;0.80;;;;;;;;;;4919409;29;20055;-82
2022/02/04 20:46:47;;;;;;;3.17;0.50;;;;;;;;;;4917797;29;20032;-82
2022/02/04 20:49:17;;;;;;;0.63;0.30;;;;;;;;;;4935782;29;20079;-84
2022/02/04 20:54:52;;;;;;;1.08;0.63;;;;;;;;;;4935119;29;20025;-84
2022/02/04 20:57:30;;;;;;;1.70;0.50;;;;;;;;;;4935541;29;20028;-83
2022/02/04 21:00:25;;;;;;;1.10;0.50;;;;;;;;;;4934659;29;20099;-83
2022/02/04 21:02:51;;;;;;;0.85;0.50;;;;;;;;;;4941671;29;20036;-83
2022/02/04 21:05:32;;;;;;;;;;;;;;;;;;;;;
2022/02/04 21:14:04;;;;;;;2.40;0.73;;;;;;;;;;4941855;29;20039;-83
2022/02/04 21:20:37;;;;;;;;;;;;;;;;;;;;;
2022/02/04 21:26:27;;;;;;;1.50;0.60;;;;;;;;;;4897255;29;20041;-82
2022/02/04 21:32:17;;;;;;;2.35;0.80;;;;;;;;;;4840322;29;20046;-83
2022/02/04 21:37:32;;;;;;;2.67;1.00;;;;;;;;;;4851285;29;20116;-83
2022/02/04 21:39:58;;;;;;;2.85;0.88;;;;;;;;;;4861723;29;20059;-82
2022/02/04 21:42:27;;;;;;;1.83;0.60;;;;;;;;;;4845687;29;20025;-82
2022/02/04 21:44:52;;;;;;;1.10;0.40;;;;;;;;;;4864317;29;20024;-82
2022/02/04 21:47:27;;;;;;;2.85;0.35;;;;;;;;;;4852254;29;20021;-81
2022/02/04 21:50:02;;;;;;;0.77;0.35;;;;;;;;;;4852312;29;20082;-81
2022/02/04 21:52:28;;;;;;;0.93;0.30;;;;;;;;;;4851935;29;20211;-82
2022/02/04 21:54:53;;;;;;;0.30;0.10;;;;;;;;;;4867360;29;20025;-83
2022/02/04 21:57:42;;;;;;;1.17;0.40;;;;;;;;;;5031897;23;20108;-82
2022/02/04 22:00:11;;;;;;;1.45;0.40;;;;;;;;;;4911579;29;20020;-82
2022/02/04 22:02:41;;;;;;;1.23;0.20;;;;;;;;;;4906683;29;20033;-82
2022/02/04 22:05:12;;;;;;;0.90;0.25;;;;;;;;;;4906677;29;20024;-83
2022/02/04 22:07:49;;;;;;;1.40;0.30;;;;;;;;;;4905768;29;20053;-82
2022/02/04 22:23:43;;;;;;;1.30;0.30;;;;;;;;;;4935813;29;20035;-77
2022/02/04 22:26:08;;;;;;;0.63;0.30;;;;;;;;;;4935847;29;20020;-78
2022/02/04 22:28:37;;;;;;;0.30;0.15;;;;;;;;;;4935846;29;20023;-77
2022/02/04 22:31:07;;;;;;;2.40;0.50;;;;;;;;;;4926375;29;20024;-78
2022/02/04 22:33:42;;;;;;;0.63;0.10;;;;;;;;;;4914413;29;20031;-77
2022/02/04 22:36:53;;;;;;;1.63;0.50;;;;;;;;;;4910652;29;20549;-77
2022/02/04 22:39:17;;;;;;;0.38;0.10;;;;;;;;;;4917901;29;20092;-76
2022/02/04 22:49:25;;;;;;;1.00;0.35;;;;;;;;;;4916889;29;20111;-77
2022/02/04 22:59:30;;;;;;;1.83;0.60;;;;;;;;;;4916946;29;20029;-76
2022/02/04 23:01:56;;;;;;;1.02;0.40;;;;;;;;;;4916548;29;20031;-75
2022/02/04 23:04:24;;;;;;;1.85;0.55;;;;;;;;;;4916367;29;20020;-76
2022/02/04 23:06:51;;;;;;;1.10;0.32;;;;;;;;;;4916855;29;20024;-77
2022/02/04 23:09:45;;;;;;;2.00;0.50;;;;;;;;;;4916188;29;20024;-77
2022/02/04 23:12:02;;;;;;;3.65;0.80;;;;;;;;;;4915847;29;20115;-76
2022/02/04 23:14:39;;;;;;;2.95;0.65;;;;;;;;;;4916360;29;20048;-77
2022/02/04 23:17:16;;;;;;;0.52;0.22;;;;;;;;;;4916248;29;20095;-76
2022/02/04 23:20:01;;;;;;;0.63;0.32;;;;;;;;;;4915823;29;20024;-76
2022/02/04 23:22:32;;;;;;;1.75;0.77;;;;;;;;;;4916150;29;20488;-76
2022/02/04 23:25:21;;;;;;;2.38;0.60;;;;;;;;;;4899136;29;20020;-76